Rock Creek, Minnesota
Current Conditions -  °F | °C
As of 10:35 AM on Friday 21 Nov 2014 (Local Time) from KROS Reporting Station
Scattered Clouds Scattered Clouds  
Wind Chill:   Ceiling: Unl
Heat Index: 18°   Visibility: 10mi
Dew Point:   Wind: 14mph
Humidity: 68%   Direction: 170°S
Pressure: 30.13"   Gusts: NA
Location:  45.76°N, 92.96°W
Report Text: KROS 211635Z AUTO 17012KT 10SM SCT110 M08/M13 A3013 RMK AO2 T10771126
Loading
Personal Weather Stations






























Interactive Weather Map New forecast layout! Learn more

10-Day Weather Forecast

Advertisements
Track Severe Weather on mobile